createdAt,value
2017-10-23T00:00:14.938Z,82.74
2017-10-23T00:02:42.570Z,82.94
2017-10-23T00:05:10.158Z,82.59
2017-10-23T00:07:37.800Z,81.88
2017-10-23T00:10:05.394Z,82.37
2017-10-23T00:12:33.063Z,82.24
2017-10-23T00:15:00.663Z,81.56
2017-10-23T00:17:28.393Z,82.05
2017-10-23T00:19:55.982Z,82.09
2017-10-23T00:22:23.635Z,81.88
2017-10-23T00:24:51.272Z,81.55
2017-10-23T00:27:18.863Z,81.42
2017-10-23T00:29:46.527Z,81.21
2017-10-23T00:32:14.115Z,81.18
2017-10-23T00:34:41.752Z,81.19
2017-10-23T00:37:09.347Z,81.43
2017-10-23T00:39:37.783Z,81.62
2017-10-23T00:42:06.463Z,80.95
2017-10-23T00:44:34.090Z,81.09
2017-10-23T00:47:01.683Z,80.99
2017-10-23T00:49:29.313Z,81.01
2017-10-23T00:51:57.018Z,80.92
2017-10-23T00:54:24.654Z,80.93
2017-10-23T00:56:52.773Z,80.87
2017-10-23T00:59:20.393Z,80.17
2017-10-23T01:01:47.995Z,80.35
2017-10-23T01:04:15.591Z,80.74
2017-10-23T01:06:43.220Z,81.12
2017-10-23T01:09:11.667Z,81.26
2017-10-23T01:11:39.271Z,81.33
2017-10-23T01:14:06.868Z,80.72
2017-10-23T01:16:34.502Z,80.45
2017-10-23T01:19:02.097Z,80.53
2017-10-23T01:21:29.731Z,80.77
2017-10-23T01:23:57.334Z,80.72
2017-10-23T01:26:24.967Z,80.78
2017-10-23T01:28:52.547Z,80.55
2017-10-23T01:31:20.174Z,80.47
2017-10-23T01:33:47.768Z,80.44
2017-10-23T01:36:15.383Z,80.56
2017-10-23T01:38:43.054Z,80.56
2017-10-23T01:41:10.653Z,80.30
2017-10-23T01:43:38.281Z,80.60
2017-10-23T01:46:07.093Z,80.11
2017-10-23T01:48:34.711Z,80.14
2017-10-23T01:51:02.306Z,80.34
2017-10-23T01:53:29.927Z,80.55
2017-10-23T01:55:57.515Z,80.66
2017-10-23T01:58:25.156Z,80.58
2017-10-23T02:00:52.731Z,80.60
2017-10-23T02:03:20.380Z,80.61
2017-10-23T02:05:47.978Z,80.65
2017-10-23T02:08:15.611Z,80.63
2017-10-23T02:10:44.074Z,80.75
2017-10-23T02:13:11.759Z,80.89
2017-10-23T02:15:39.361Z,80.95
2017-10-23T02:18:06.995Z,81.15
2017-10-23T02:20:34.592Z,81.28
2017-10-23T02:23:02.966Z,81.72
2017-10-23T02:25:30.595Z,82.15
2017-10-23T02:27:58.170Z,82.44
2017-10-23T02:30:25.825Z,82.59
2017-10-23T02:32:53.409Z,82.71
2017-10-23T02:35:21.045Z,82.80
2017-10-23T02:37:48.642Z,83.07
2017-10-23T02:40:16.261Z,83.53
2017-10-23T02:42:43.864Z,83.93
2017-10-23T02:45:11.482Z,84.11
2017-10-23T02:47:39.888Z,84.23
2017-10-23T02:50:07.531Z,84.55
2017-10-23T02:52:35.120Z,83.99
2017-10-23T02:55:02.743Z,83.87
2017-10-23T02:57:30.871Z,84.05
2017-10-23T02:59:58.490Z,84.13
2017-10-23T03:02:26.096Z,84.04
2017-10-23T03:04:53.736Z,84.00
2017-10-23T03:07:21.399Z,84.04
2017-10-23T03:09:49.015Z,84.22
2017-10-23T03:12:16.607Z,84.12
2017-10-23T03:14:44.273Z,84.03
2017-10-23T03:17:11.835Z,84.18
2017-10-23T03:19:39.467Z,84.24
2017-10-23T03:22:07.050Z,84.10
2017-10-23T03:24:34.677Z,83.98
2017-10-23T03:27:02.271Z,83.99
2017-10-23T03:29:29.891Z,84.12
2017-10-23T03:31:57.464Z,83.86
2017-10-23T03:34:26.286Z,83.78
2017-10-23T03:36:53.867Z,83.78
2017-10-23T03:39:21.494Z,83.90
2017-10-23T03:41:49.112Z,83.90
2017-10-23T03:44:16.732Z,83.91
2017-10-23T03:46:44.317Z,83.92
2017-10-23T03:49:11.931Z,83.79
2017-10-23T03:51:39.625Z,83.96
2017-10-23T03:54:07.305Z,84.09
2017-10-23T03:56:34.905Z,83.96
2017-10-23T03:59:02.618Z,83.85
2017-10-23T04:01:30.204Z,83.89
2017-10-23T04:03:57.807Z,83.92
2017-10-23T04:06:25.399Z,84.08
2017-10-23T04:08:53.078Z,83.93
2017-10-23T04:11:20.675Z,83.92
2017-10-23T04:13:48.949Z,84.11
2017-10-23T04:16:16.575Z,84.15
2017-10-23T04:18:44.196Z,83.90
2017-10-23T04:21:11.789Z,83.94
2017-10-23T04:23:39.425Z,83.81
2017-10-23T04:26:07.666Z,83.64
2017-10-23T04:28:35.279Z,83.50
2017-10-23T04:31:02.871Z,83.60
2017-10-23T04:33:30.488Z,83.85
2017-10-23T04:35:58.083Z,83.58
2017-10-23T04:38:25.707Z,83.72
2017-10-23T04:40:53.300Z,83.66
2017-10-23T04:43:20.906Z,83.64
2017-10-23T04:45:48.520Z,83.76
2017-10-23T04:48:16.140Z,83.93
2017-10-23T04:50:43.770Z,83.88
2017-10-23T04:53:11.375Z,84.01
2017-10-23T04:55:39.006Z,83.87
2017-10-23T04:58:06.587Z,83.82
2017-10-23T05:00:34.206Z,83.71
2017-10-23T05:03:01.785Z,83.71
2017-10-23T05:05:29.406Z,83.87
2017-10-23T05:07:57.023Z,83.79
2017-10-23T05:10:24.629Z,83.88
2017-10-23T05:12:52.250Z,83.49
2017-10-23T05:15:19.855Z,83.40
2017-10-23T05:17:47.484Z,83.40
2017-10-23T05:20:15.065Z,83.41
2017-10-23T05:22:42.723Z,83.58
2017-10-23T05:25:10.328Z,83.58
2017-10-23T05:27:37.987Z,83.64
2017-10-23T05:30:05.550Z,83.48
2017-10-23T05:32:33.176Z,83.67
2017-10-23T05:35:00.748Z,83.57
2017-10-23T05:37:28.389Z,83.61
2017-10-23T05:39:56.014Z,83.63
2017-10-23T05:42:23.725Z,83.55
2017-10-23T05:44:51.446Z,83.54
2017-10-23T05:47:19.039Z,83.63
2017-10-23T05:49:46.696Z,83.64
2017-10-23T05:52:14.902Z,83.80
2017-10-23T05:54:42.482Z,83.99
2017-10-23T05:57:10.117Z,84.02
2017-10-23T05:59:37.706Z,84.16
2017-10-23T06:02:05.310Z,84.46
2017-10-23T06:04:32.918Z,84.70
2017-10-23T06:07:00.596Z,84.74
2017-10-23T06:09:28.361Z,85.04
2017-10-23T06:11:55.962Z,85.13
2017-10-23T06:14:23.533Z,85.35
2017-10-23T06:16:51.247Z,85.54
2017-10-23T06:19:18.826Z,85.92
2017-10-23T06:21:46.458Z,86.01
2017-10-23T06:24:14.088Z,86.15
2017-10-23T06:26:41.683Z,86.28
2017-10-23T06:29:09.304Z,86.39
2017-10-23T06:31:36.946Z,86.39
2017-10-23T06:34:04.561Z,86.58
2017-10-23T06:36:32.198Z,86.71
2017-10-23T06:38:59.888Z,86.87
2017-10-23T06:41:27.500Z,87.06
2017-10-23T06:43:55.139Z,87.12
2017-10-23T06:46:22.758Z,87.13
2017-10-23T06:48:50.362Z,87.12
2017-10-23T06:51:17.990Z,87.45
2017-10-23T06:53:45.566Z,87.36
2017-10-23T06:56:13.180Z,87.46
2017-10-23T06:58:40.854Z,87.48
2017-10-23T07:01:08.477Z,87.67
2017-10-23T07:03:36.061Z,87.75
2017-10-23T07:06:03.742Z,87.83
2017-10-23T07:08:31.315Z,87.96
2017-10-23T07:10:59.591Z,87.85
2017-10-23T07:13:28.058Z,87.84
2017-10-23T07:15:55.668Z,87.79
2017-10-23T07:18:23.302Z,87.83
2017-10-23T07:20:50.911Z,87.88
2017-10-23T07:23:18.562Z,87.76
2017-10-23T07:25:46.177Z,87.66
2017-10-23T07:28:13.843Z,87.78
2017-10-23T07:30:42.682Z,87.78
2017-10-23T07:33:10.288Z,87.58
2017-10-23T07:35:37.887Z,87.51
2017-10-23T07:38:05.510Z,87.39
2017-10-23T07:40:33.120Z,87.28
2017-10-23T07:43:00.775Z,86.98
2017-10-23T07:45:28.515Z,86.97
2017-10-23T07:47:56.175Z,86.87
2017-10-23T07:50:23.771Z,86.85
2017-10-23T07:52:51.519Z,86.87
2017-10-23T07:55:19.115Z,86.36
2017-10-23T07:57:46.740Z,85.82
2017-10-23T08:00:14.331Z,86.03
2017-10-23T08:02:41.968Z,86.12
2017-10-23T08:05:09.570Z,86.03
2017-10-23T08:07:37.194Z,86.08
2017-10-23T08:10:04.788Z,86.25
2017-10-23T08:12:32.419Z,86.06
2017-10-23T08:15:00.023Z,86.26
2017-10-23T08:17:27.642Z,85.87
2017-10-23T08:19:55.254Z,85.94
2017-10-23T08:22:22.911Z,85.54
2017-10-23T08:24:50.498Z,85.47
2017-10-23T08:27:18.125Z,85.28
2017-10-23T08:29:45.764Z,85.23
2017-10-23T08:32:13.392Z,85.01
2017-10-23T08:34:40.982Z,85.06
2017-10-23T08:37:08.663Z,84.99
2017-10-23T08:39:36.264Z,85.02
2017-10-23T08:42:03.879Z,84.87
2017-10-23T08:44:31.504Z,85.07
2017-10-23T08:46:59.110Z,85.00
2017-10-23T08:49:26.764Z,84.90
2017-10-23T08:51:54.375Z,84.92
2017-10-23T08:54:22.093Z,84.78
2017-10-23T08:56:49.681Z,84.98
2017-10-23T08:59:17.316Z,84.71
2017-10-23T09:01:44.926Z,84.47
2017-10-23T09:04:12.546Z,84.14
2017-10-23T09:06:40.143Z,84.45
2017-10-23T09:09:07.792Z,84.21
2017-10-23T09:11:35.406Z,83.87
2017-10-23T09:14:03.198Z,84.02
2017-10-23T09:16:30.780Z,83.54
2017-10-23T09:18:58.418Z,83.64
2017-10-23T09:21:26.006Z,83.44
2017-10-23T09:23:53.630Z,83.05
2017-10-23T09:26:21.244Z,83.26
2017-10-23T09:28:48.873Z,83.14
2017-10-23T09:31:16.467Z,82.93
2017-10-23T09:33:44.096Z,82.93
2017-10-23T09:36:11.706Z,82.91
2017-10-23T09:38:39.367Z,82.98
2017-10-23T09:41:07.032Z,82.80
2017-10-23T09:43:34.763Z,82.81
2017-10-23T09:46:02.379Z,82.58
2017-10-23T09:48:30.047Z,82.96
2017-10-23T09:50:57.647Z,82.96
2017-10-23T09:53:25.310Z,83.20
2017-10-23T09:55:52.958Z,83.39
2017-10-23T09:58:20.595Z,83.47
2017-10-23T10:00:48.220Z,83.55
2017-10-23T10:03:15.824Z,83.46
2017-10-23T10:05:43.443Z,83.37
2017-10-23T10:08:11.063Z,83.48
2017-10-23T10:10:38.726Z,83.08
2017-10-23T10:13:06.455Z,82.26
2017-10-23T10:15:34.125Z,82.27
2017-10-23T10:18:01.740Z,81.59
2017-10-23T10:20:29.366Z,81.10
2017-10-23T10:22:56.968Z,80.30
2017-10-23T10:25:24.599Z,80.70
2017-10-23T10:27:52.326Z,80.01
2017-10-23T10:30:20.003Z,79.18
2017-10-23T10:32:47.665Z,78.28
2017-10-23T10:35:15.274Z,77.95
2017-10-23T10:37:42.921Z,79.00
2017-10-23T10:40:10.529Z,80.17
2017-10-23T10:42:38.182Z,80.74
2017-10-23T10:45:05.828Z,81.28
2017-10-23T10:47:33.451Z,81.85
2017-10-23T10:50:01.076Z,81.73
2017-10-23T10:52:28.726Z,82.00
2017-10-23T10:54:56.331Z,82.13
2017-10-23T10:57:23.989Z,81.79
2017-10-23T10:59:51.587Z,81.90
2017-10-23T11:02:19.225Z,82.12
2017-10-23T11:04:46.891Z,82.36
2017-10-23T11:07:14.527Z,81.92
2017-10-23T11:09:42.127Z,82.39
2017-10-23T11:12:09.864Z,82.54
2017-10-23T11:14:37.472Z,82.65
2017-10-23T11:17:05.083Z,82.74
2017-10-23T11:19:32.770Z,82.66
2017-10-23T11:22:00.390Z,82.72
2017-10-23T11:24:28.029Z,82.56
2017-10-23T11:26:55.746Z,82.01
2017-10-23T11:29:23.339Z,81.70
2017-10-23T11:31:51.011Z,81.76
2017-10-23T11:34:18.582Z,81.73
2017-10-23T11:36:46.359Z,81.88
2017-10-23T11:39:13.990Z,82.07
2017-10-23T11:41:41.631Z,82.17
2017-10-23T11:44:09.275Z,82.15
2017-10-23T11:46:36.919Z,82.34
2017-10-23T11:49:04.534Z,82.49
2017-10-23T11:51:32.190Z,82.70
2017-10-23T11:53:59.891Z,82.83
2017-10-23T11:56:27.521Z,82.99
2017-10-23T11:58:55.164Z,82.97
2017-10-23T12:01:22.921Z,82.78
2017-10-23T12:03:50.510Z,82.97
2017-10-23T12:06:18.167Z,83.04
2017-10-23T12:08:45.766Z,83.11
2017-10-23T12:11:13.366Z,83.43
2017-10-23T12:13:41.011Z,83.78
2017-10-23T12:16:08.745Z,84.28
2017-10-23T12:18:36.358Z,84.77
2017-10-23T12:21:04.006Z,85.16
2017-10-23T12:23:31.638Z,85.19
2017-10-23T12:25:59.379Z,85.75
2017-10-23T12:28:27.019Z,85.94
2017-10-23T12:30:54.671Z,85.53
2017-10-23T12:33:22.274Z,85.71
2017-10-23T12:35:49.923Z,85.72
2017-10-23T12:38:17.542Z,85.31
2017-10-23T12:40:45.174Z,84.98
2017-10-23T12:43:12.834Z,84.09
2017-10-23T12:45:40.521Z,83.78
2017-10-23T12:48:08.127Z,83.62
2017-10-23T12:50:35.762Z,82.73
2017-10-23T12:53:03.376Z,82.89
2017-10-23T12:55:31.033Z,82.69
2017-10-23T12:57:58.636Z,82.81
2017-10-23T13:00:26.272Z,82.24
2017-10-23T13:02:53.892Z,82.28
2017-10-23T13:05:21.596Z,82.07
2017-10-23T13:07:49.255Z,82.33
2017-10-23T13:10:16.884Z,81.40
2017-10-23T13:12:44.510Z,81.41
2017-10-23T13:15:12.130Z,81.27
2017-10-23T13:17:39.778Z,81.00
2017-10-23T13:20:07.393Z,80.46
2017-10-23T13:22:35.032Z,80.71
2017-10-23T13:25:02.662Z,80.28
2017-10-23T13:27:30.275Z,80.36
2017-10-23T13:29:57.907Z,80.25
2017-10-23T13:32:25.531Z,80.05
2017-10-23T13:34:53.155Z,80.10
2017-10-23T13:37:20.790Z,80.21
2017-10-23T13:39:48.410Z,79.84
2017-10-23T13:42:16.113Z,79.52
2017-10-23T13:44:43.730Z,79.56
2017-10-23T13:47:11.393Z,79.51
2017-10-23T13:49:39.004Z,79.68
2017-10-23T13:52:06.769Z,79.93
2017-10-23T13:54:34.422Z,79.71
2017-10-23T13:57:02.054Z,79.57
2017-10-23T13:59:29.707Z,79.27
2017-10-23T14:01:57.404Z,79.04
2017-10-23T14:04:25.046Z,77.98
2017-10-23T14:06:52.685Z,76.26
2017-10-23T14:09:20.339Z,74.38
2017-10-23T14:11:47.938Z,72.99
2017-10-23T14:14:15.587Z,72.39
2017-10-23T14:16:43.281Z,73.10
2017-10-23T14:19:10.929Z,74.20
2017-10-23T14:21:38.549Z,75.02
2017-10-23T14:24:06.199Z,75.47
2017-10-23T14:26:33.787Z,75.77
2017-10-23T14:29:01.414Z,76.10
2017-10-23T14:31:29.004Z,76.46
2017-10-23T14:33:56.611Z,76.62
2017-10-23T14:36:24.352Z,76.61
2017-10-23T14:38:52.000Z,76.37
2017-10-23T14:41:19.622Z,76.24
2017-10-23T14:43:47.233Z,76.28
2017-10-23T14:46:14.855Z,75.99
2017-10-23T14:48:42.462Z,76.23
2017-10-23T14:51:10.107Z,76.30
2017-10-23T14:53:37.724Z,76.41
2017-10-23T14:56:05.360Z,76.34
2017-10-23T14:58:32.955Z,76.50
2017-10-23T15:01:00.624Z,76.86
2017-10-23T15:03:28.219Z,77.08
2017-10-23T15:05:55.866Z,76.87
2017-10-23T15:08:23.489Z,77.06
2017-10-23T15:10:51.125Z,76.72
2017-10-23T15:13:18.746Z,76.74
2017-10-23T15:15:46.452Z,76.13
2017-10-23T15:18:14.043Z,76.24
2017-10-23T15:20:41.680Z,76.31
2017-10-23T15:23:09.290Z,76.17
2017-10-23T15:25:36.935Z,76.37
2017-10-23T15:28:04.538Z,76.64
2017-10-23T15:30:32.166Z,76.89
2017-10-23T15:32:59.806Z,76.37
2017-10-23T15:35:27.476Z,76.85
2017-10-23T15:37:55.086Z,76.99
2017-10-23T15:40:22.704Z,77.00
2017-10-23T15:42:50.419Z,77.24
2017-10-23T15:45:18.050Z,77.57
2017-10-23T15:47:45.691Z,77.94
2017-10-23T15:50:13.306Z,77.99
2017-10-23T15:52:40.959Z,78.13
2017-10-23T15:55:08.583Z,78.09
2017-10-23T15:57:36.270Z,78.26
2017-10-23T16:00:03.900Z,78.52
2017-10-23T16:02:31.606Z,78.64
2017-10-23T16:04:59.243Z,78.92
2017-10-23T16:07:26.898Z,79.07
2017-10-23T16:09:54.493Z,79.45
2017-10-23T16:12:22.122Z,79.56
2017-10-23T16:14:49.742Z,79.79
2017-10-23T16:17:17.372Z,79.96
2017-10-23T16:19:44.974Z,80.24
2017-10-23T16:22:12.600Z,80.45
2017-10-23T16:24:40.189Z,80.71
2017-10-23T16:27:08.632Z,80.93
2017-10-23T16:29:36.231Z,80.96
2017-10-23T16:32:03.858Z,81.20
2017-10-23T16:34:32.401Z,81.33
2017-10-23T16:37:00.166Z,85.05
2017-10-23T16:39:27.752Z,84.18
2017-10-23T16:41:55.385Z,87.09
2017-10-23T16:44:23.029Z,81.31
2017-10-23T16:46:50.808Z,80.83
2017-10-23T16:49:18.395Z,81.14
2017-10-23T16:51:45.994Z,81.60
2017-10-23T16:54:13.634Z,82.09
2017-10-23T16:56:41.273Z,82.42
2017-10-23T16:59:08.961Z,82.86
2017-10-23T17:01:36.568Z,83.25
2017-10-23T17:04:04.186Z,83.57
2017-10-23T17:06:31.787Z,83.83
2017-10-23T17:08:59.540Z,83.97
2017-10-23T17:11:27.156Z,84.14
2017-10-23T17:13:54.803Z,84.30
2017-10-23T17:16:22.456Z,84.44
2017-10-23T17:18:50.110Z,84.51
2017-10-23T17:21:17.748Z,84.71
2017-10-23T17:23:45.398Z,84.94
2017-10-23T17:26:13.035Z,85.24
2017-10-23T17:28:40.678Z,85.44
2017-10-23T17:31:08.291Z,85.41
2017-10-23T17:33:35.948Z,85.45
2017-10-23T17:36:03.544Z,85.62
2017-10-23T17:38:31.182Z,85.82
2017-10-23T17:40:58.838Z,85.86
2017-10-23T17:43:26.483Z,85.88
2017-10-23T17:45:54.151Z,86.04
2017-10-23T17:48:21.806Z,86.12
2017-10-23T17:50:49.410Z,86.21
2017-10-23T17:53:17.056Z,86.28
2017-10-23T17:55:44.681Z,86.25
2017-10-23T17:58:12.302Z,86.35
2017-10-23T18:00:39.955Z,86.46
2017-10-23T18:03:09.271Z,86.48
2017-10-23T18:05:36.932Z,86.55
2017-10-23T18:08:04.594Z,86.53
2017-10-23T18:10:32.239Z,86.50
2017-10-23T18:12:59.864Z,86.54
2017-10-23T18:15:27.507Z,86.59
2017-10-23T18:17:55.131Z,86.66
2017-10-23T18:20:23.431Z,86.77
2017-10-23T18:22:51.042Z,86.81
2017-10-23T18:25:18.698Z,86.92
2017-10-23T18:27:46.306Z,86.99
2017-10-23T18:30:13.955Z,87.05
2017-10-23T18:32:41.557Z,87.04
2017-10-23T18:35:09.196Z,87.11
2017-10-23T18:37:36.782Z,87.30
2017-10-23T18:40:04.426Z,87.42
2017-10-23T18:42:32.051Z,87.50
2017-10-23T18:44:59.719Z,87.64
2017-10-23T18:47:27.369Z,87.77
2017-10-23T18:49:55.031Z,87.87
2017-10-23T18:52:22.651Z,88.08
2017-10-23T18:54:51.162Z,88.12
2017-10-23T18:57:18.790Z,88.26
2017-10-23T18:59:46.419Z,88.22
2017-10-23T19:02:14.053Z,88.20
2017-10-23T19:04:41.690Z,88.10
2017-10-23T19:07:09.304Z,88.21
2017-10-23T19:09:36.916Z,88.11
2017-10-23T19:12:04.582Z,88.07
2017-10-23T19:14:32.206Z,87.90
2017-10-23T19:16:59.855Z,87.95
2017-10-23T19:19:27.480Z,88.02
2017-10-23T19:21:55.150Z,87.99
2017-10-23T19:24:23.403Z,88.02
2017-10-23T19:26:51.088Z,87.99
2017-10-23T19:29:18.718Z,88.09
2017-10-23T19:31:46.366Z,88.04
2017-10-23T19:34:13.999Z,87.90
2017-10-23T19:36:41.661Z,87.97
2017-10-23T19:39:09.333Z,87.98
2017-10-23T19:41:37.116Z,90.57
2017-10-23T19:44:04.755Z,89.44
2017-10-23T19:46:32.400Z,89.76
2017-10-23T19:48:59.992Z,90.96
2017-10-23T19:51:27.740Z,90.54
2017-10-23T19:53:55.363Z,90.25
2017-10-23T19:56:23.015Z,87.32
2017-10-23T19:58:50.654Z,91.76
2017-10-23T20:01:18.332Z,88.09
2017-10-23T20:03:45.955Z,85.96
2017-10-23T20:06:13.612Z,83.25
2017-10-23T20:08:41.238Z,80.91
2017-10-23T20:11:09.987Z,78.63
2017-10-23T20:13:37.620Z,71.72
2017-10-23T20:16:05.282Z,70.07
2017-10-23T20:18:32.893Z,68.72
2017-10-23T20:21:00.563Z,67.92
2017-10-23T20:23:28.182Z,68.45
2017-10-23T20:25:55.829Z,69.38
2017-10-23T20:28:23.478Z,71.44
2017-10-23T20:30:51.143Z,73.18
2017-10-23T20:33:18.749Z,74.93
2017-10-23T20:35:46.381Z,76.74
2017-10-23T20:38:13.976Z,78.41
2017-10-23T20:40:41.632Z,79.83
2017-10-23T20:43:09.243Z,80.82
2017-10-23T20:45:36.888Z,81.67
2017-10-23T20:48:04.490Z,82.42
2017-10-23T20:50:32.139Z,83.01
2017-10-23T20:52:59.738Z,83.72
2017-10-23T20:55:27.381Z,84.25
2017-10-23T20:57:55.024Z,84.75
2017-10-23T21:00:22.673Z,85.50
2017-10-23T21:02:51.502Z,86.22
2017-10-23T21:05:19.126Z,86.69
2017-10-23T21:07:46.721Z,87.13
2017-10-23T21:10:14.378Z,88.39
2017-10-23T21:12:42.065Z,87.85
2017-10-23T21:15:09.728Z,87.82
2017-10-23T21:17:37.351Z,88.00
2017-10-23T21:20:05.096Z,88.26
2017-10-23T21:22:32.715Z,88.35
2017-10-23T21:25:00.363Z,88.66
2017-10-23T21:27:27.985Z,88.90
2017-10-23T21:29:55.755Z,88.79
2017-10-23T21:32:23.346Z,88.82
2017-10-23T21:34:50.966Z,88.79
2017-10-23T21:37:18.598Z,88.65
2017-10-23T21:39:46.190Z,88.56
2017-10-23T21:42:13.819Z,88.58
2017-10-23T21:44:41.429Z,88.65
2017-10-23T21:47:10.308Z,88.69
2017-10-23T21:49:38.028Z,88.88
2017-10-23T21:52:05.654Z,89.15
2017-10-23T21:54:33.289Z,89.92
2017-10-23T21:57:00.956Z,90.27
2017-10-23T21:59:28.596Z,90.26
2017-10-23T22:01:56.268Z,90.53
2017-10-23T22:04:23.888Z,90.82
2017-10-23T22:06:51.531Z,91.07
2017-10-23T22:09:19.150Z,91.08
2017-10-23T22:11:46.785Z,90.68
2017-10-23T22:14:14.410Z,91.02
2017-10-23T22:16:42.044Z,91.46
2017-10-23T22:19:09.635Z,91.83
2017-10-23T22:21:37.282Z,92.32
2017-10-23T22:24:04.894Z,92.93
2017-10-23T22:26:32.513Z,93.43
2017-10-23T22:29:00.154Z,94.14
2017-10-23T22:31:27.795Z,94.61
2017-10-23T22:33:55.410Z,94.90
2017-10-23T22:36:23.070Z,95.16
2017-10-23T22:38:50.666Z,95.09
2017-10-23T22:41:18.285Z,94.88
2017-10-23T22:43:45.950Z,94.61
2017-10-23T22:46:13.550Z,94.77
2017-10-23T22:48:41.195Z,95.11
2017-10-23T22:51:08.798Z,95.33
2017-10-23T22:53:36.451Z,95.33
2017-10-23T22:56:04.050Z,95.58
2017-10-23T22:58:31.834Z,96.35
2017-10-23T23:00:59.427Z,97.05
2017-10-23T23:03:27.059Z,97.51
2017-10-23T23:05:54.642Z,97.99
2017-10-23T23:08:22.293Z,98.13
2017-10-23T23:10:49.886Z,98.39
2017-10-23T23:13:17.519Z,98.45
2017-10-23T23:15:45.203Z,98.61
2017-10-23T23:18:14.035Z,98.73
2017-10-23T23:20:41.643Z,98.84
2017-10-23T23:23:09.264Z,98.89
2017-10-23T23:25:36.863Z,98.87
2017-10-23T23:28:04.644Z,98.77
2017-10-23T23:30:32.269Z,98.80
2017-10-23T23:32:59.918Z,98.74
2017-10-23T23:35:27.536Z,98.67
2017-10-23T23:37:55.147Z,98.82
2017-10-23T23:40:22.784Z,98.96
2017-10-23T23:42:50.370Z,98.99
2017-10-23T23:45:18.009Z,98.96
2017-10-23T23:47:45.600Z,99.05
2017-10-23T23:50:13.220Z,99.15
2017-10-23T23:52:40.827Z,99.21
2017-10-23T23:55:09.950Z,99.39
2017-10-23T23:57:37.567Z,99.50
